sensor_id;sensor_type;location;lat;lon;timestamp;pressure;altitude;pressure_sealevel;temperature;humidity
17615;BME280;8926;49.720;6.576;2023-05-09T00:00:17;99939.13;;;17.15;79.58
17615;BME280;8926;49.720;6.576;2023-05-09T00:02:42;99933.84;;;17.15;79.82
17615;BME280;8926;49.720;6.576;2023-05-09T00:05:10;99929.38;;;17.15;79.86
17615;BME280;8926;49.720;6.576;2023-05-09T00:07:36;99939.13;;;17.15;79.50
17615;BME280;8926;49.720;6.576;2023-05-09T00:10:01;99935.78;;;17.13;79.90
17615;BME280;8926;49.720;6.576;2023-05-09T00:12:26;99938.53;;;17.11;79.84
17615;BME280;8926;49.720;6.576;2023-05-09T00:14:53;99936.97;;;17.09;80.07
17615;BME280;8926;49.720;6.576;2023-05-09T00:17:19;99941.53;;;17.07;79.75
17615;BME280;8926;49.720;6.576;2023-05-09T00:19:47;99933.84;;;17.04;79.73
17615;BME280;8926;49.720;6.576;2023-05-09T00:22:13;99929.66;;;17.01;80.00
17615;BME280;8926;49.720;6.576;2023-05-09T00:24:38;99929.78;;;17.00;79.92
17615;BME280;8926;49.720;6.576;2023-05-09T00:27:03;99915.88;;;16.98;79.82
17615;BME280;8926;49.720;6.576;2023-05-09T00:29:29;99921.38;;;16.94;79.63
17615;BME280;8926;49.720;6.576;2023-05-09T00:31:54;99919.94;;;16.90;79.28
17615;BME280;8926;49.720;6.576;2023-05-09T00:34:20;99920.22;;;16.87;80.02
17615;BME280;8926;49.720;6.576;2023-05-09T00:36:45;99926.72;;;16.83;79.80
17615;BME280;8926;49.720;6.576;2023-05-09T00:39:11;99924.31;;;16.80;80.07
17615;BME280;8926;49.720;6.576;2023-05-09T00:41:37;99916.88;;;16.74;80.22
17615;BME280;8926;49.720;6.576;2023-05-09T00:44:02;99916.28;;;16.71;80.22
17615;BME280;8926;49.720;6.576;2023-05-09T00:46:27;99911.97;;;16.70;80.37
17615;BME280;8926;49.720;6.576;2023-05-09T00:48:53;99912.78;;;16.70;80.20
17615;BME280;8926;49.720;6.576;2023-05-09T00:51:20;99913.03;;;16.67;79.80
17615;BME280;8926;49.720;6.576;2023-05-09T00:53:46;99902.97;;;16.61;80.48
17615;BME280;8926;49.720;6.576;2023-05-09T00:56:12;99902.97;;;16.61;80.45
17615;BME280;8926;49.720;6.576;2023-05-09T00:58:38;99895.72;;;16.63;80.52
17615;BME280;8926;49.720;6.576;2023-05-09T01:01:04;99893.09;;;16.63;80.45
17615;BME280;8926;49.720;6.576;2023-05-09T01:03:30;99892.41;;;16.61;80.56
17615;BME280;8926;49.720;6.576;2023-05-09T01:09:18;99883.78;;;16.59;80.10
17615;BME280;8926;49.720;6.576;2023-05-09T01:12:12;99880.41;;;16.57;80.44
17615;BME280;8926;49.720;6.576;2023-05-09T01:14:52;99883.19;;;16.55;80.44
17615;BME280;8926;49.720;6.576;2023-05-09T01:20:28;99877.31;;;16.52;80.46
17615;BME280;8926;49.720;6.576;2023-05-09T01:25:56;99873.94;;;16.50;80.65
17615;BME280;8926;49.720;6.576;2023-05-09T01:28:59;;;;16.51;
17615;BME280;8926;49.720;6.576;2023-05-09T01:31:32;99879.47;;;16.47;80.62
17615;BME280;8926;49.720;6.576;2023-05-09T01:34:01;99876.34;;;16.42;80.67
17615;BME280;8926;49.720;6.576;2023-05-09T01:36:29;99874.66;;;16.41;80.49
17615;BME280;8926;49.720;6.576;2023-05-09T01:38:58;99857.44;;;16.37;81.14
17615;BME280;8926;49.720;6.576;2023-05-09T01:41:23;99857.44;;;16.37;80.86
17615;BME280;8926;49.720;6.576;2023-05-09T01:43:54;99864.63;;;16.35;81.72
17615;BME280;8926;49.720;6.576;2023-05-09T01:46:21;99871.56;;;16.36;81.23
17615;BME280;8926;49.720;6.576;2023-05-09T01:48:49;99873.97;;;16.27;81.99
17615;BME280;8926;49.720;6.576;2023-05-09T01:51:15;99870.47;;;16.27;81.89
17615;BME280;8926;49.720;6.576;2023-05-09T01:53:41;99867.13;;;16.25;82.29
17615;BME280;8926;49.720;6.576;2023-05-09T01:56:08;99855.75;;;16.24;82.50
17615;BME280;8926;49.720;6.576;2023-05-09T01:58:34;99861.75;;;16.26;82.38
17615;BME280;8926;49.720;6.576;2023-05-09T02:01:01;99845.91;;;16.26;82.43
17615;BME280;8926;49.720;6.576;2023-05-09T02:03:27;99845.91;;;16.26;81.85
17615;BME280;8926;49.720;6.576;2023-05-09T02:05:54;99851.19;;;16.26;82.03
17615;BME280;8926;49.720;6.576;2023-05-09T02:08:20;99851.44;;;16.23;81.68
17615;BME280;8926;49.720;6.576;2023-05-09T02:10:49;99849.75;;;16.22;81.50
17615;BME280;8926;49.720;6.576;2023-05-09T02:13:14;99849.75;;;16.22;81.75
17615;BME280;8926;49.720;6.576;2023-05-09T02:15:41;99858.63;;;16.21;81.57
17615;BME280;8926;49.720;6.576;2023-05-09T02:18:07;99849.28;;;16.17;81.61
17615;BME280;8926;49.720;6.576;2023-05-09T02:20:32;99857.41;;;16.14;81.31
17615;BME280;8926;49.720;6.576;2023-05-09T02:23:00;99861.00;;;16.13;81.89
17615;BME280;8926;49.720;6.576;2023-05-09T02:25:25;99864.88;;;16.09;81.12
17615;BME280;8926;49.720;6.576;2023-05-09T02:27:51;99863.66;;;16.02;82.78
17615;BME280;8926;49.720;6.576;2023-05-09T02:30:23;99864.72;;;16.00;83.19
17615;BME280;8926;49.720;6.576;2023-05-09T02:32:57;99866.88;;;15.94;83.17
17615;BME280;8926;49.720;6.576;2023-05-09T02:35:24;99861.81;;;15.91;82.98
17615;BME280;8926;49.720;6.576;2023-05-09T02:37:51;99864.34;;;15.93;82.92
17615;BME280;8926;49.720;6.576;2023-05-09T02:40:18;99864.13;;;15.96;82.22
17615;BME280;8926;49.720;6.576;2023-05-09T02:42:43;99860.88;;;15.92;82.49
17615;BME280;8926;49.720;6.576;2023-05-09T02:45:09;99859.91;;;15.93;83.11
17615;BME280;8926;49.720;6.576;2023-05-09T02:47:37;99855.72;;;15.91;82.82
17615;BME280;8926;49.720;6.576;2023-05-09T02:50:04;99858.13;;;15.94;82.35
17615;BME280;8926;49.720;6.576;2023-05-09T02:52:29;99866.03;;;15.94;82.15
17615;BME280;8926;49.720;6.576;2023-05-09T02:54:55;99866.03;;;15.94;81.52
17615;BME280;8926;49.720;6.576;2023-05-09T02:57:21;99865.41;;;15.90;81.98
17615;BME280;8926;49.720;6.576;2023-05-09T02:59:46;99861.72;;;15.93;82.50
17615;BME280;8926;49.720;6.576;2023-05-09T03:02:11;99856.31;;;15.94;82.15
17615;BME280;8926;49.720;6.576;2023-05-09T03:04:37;99862.19;;;15.98;81.51
17615;BME280;8926;49.720;6.576;2023-05-09T03:07:02;99853.34;;;15.99;82.00
17615;BME280;8926;49.720;6.576;2023-05-09T03:09:28;99844.59;;;15.99;81.76
17615;BME280;8926;49.720;6.576;2023-05-09T03:11:54;99852.63;;;15.97;81.99
17615;BME280;8926;49.720;6.576;2023-05-09T03:14:20;99855.25;;;15.97;82.12
17615;BME280;8926;49.720;6.576;2023-05-09T03:16:46;99857.88;;;15.97;82.15
17615;BME280;8926;49.720;6.576;2023-05-09T03:19:11;99858.13;;;15.94;81.75
17615;BME280;8926;49.720;6.576;2023-05-09T03:21:36;99853.81;;;15.93;81.33
17615;BME280;8926;49.720;6.576;2023-05-09T03:24:02;99850.44;;;15.91;81.86
17615;BME280;8926;49.720;6.576;2023-05-09T03:26:29;99845.19;;;15.91;81.64
17615;BME280;8926;49.720;6.576;2023-05-09T03:28:54;99847.09;;;15.89;81.80
17615;BME280;8926;49.720;6.576;2023-05-09T03:31:19;99851.63;;;15.87;82.04
17615;BME280;8926;49.720;6.576;2023-05-09T03:33:45;99851.91;;;15.84;82.03
17615;BME280;8926;49.720;6.576;2023-05-09T03:36:10;99847.69;;;15.81;82.34
17615;BME280;8926;49.720;6.576;2023-05-09T03:38:36;99839.19;;;15.78;82.39
17615;BME280;8926;49.720;6.576;2023-05-09T03:41:04;99833.94;;;15.78;82.13
17615;BME280;8926;49.720;6.576;2023-05-09T03:43:29;99822.44;;;15.79;82.27
17615;BME280;8926;49.720;6.576;2023-05-09T03:45:55;99827.81;;;15.77;81.69
17615;BME280;8926;49.720;6.576;2023-05-09T03:48:20;99822.66;;;15.76;82.49
17615;BME280;8926;49.720;6.576;2023-05-09T03:50:45;99823.84;;;15.72;82.82
17615;BME280;8926;49.720;6.576;2023-05-09T03:53:11;99823.84;;;15.72;82.61
17615;BME280;8926;49.720;6.576;2023-05-09T03:55:36;99812.59;;;15.70;82.86
17615;BME280;8926;49.720;6.576;2023-05-09T03:58:02;99814.38;;;15.69;82.53
17615;BME280;8926;49.720;6.576;2023-05-09T04:00:27;99814.63;;;15.66;83.01
17615;BME280;8926;49.720;6.576;2023-05-09T04:02:53;99810.41;;;15.64;83.39
17615;BME280;8926;49.720;6.576;2023-05-09T04:05:18;99804.09;;;15.66;83.02
17615;BME280;8926;49.720;6.576;2023-05-09T04:07:44;99808.50;;;15.66;83.06
17615;BME280;8926;49.720;6.576;2023-05-09T04:10:10;99806.84;;;15.65;82.68
17615;BME280;8926;49.720;6.576;2023-05-09T04:12:36;99805.16;;;15.64;83.16
17615;BME280;8926;49.720;6.576;2023-05-09T04:15:01;99800.97;;;15.61;83.34
17615;BME280;8926;49.720;6.576;2023-05-09T04:17:26;99805.16;;;15.64;83.60
17615;BME280;8926;49.720;6.576;2023-05-09T04:19:51;99804.19;;;15.65;83.40
17615;BME280;8926;49.720;6.576;2023-05-09T04:22:17;99804.19;;;15.65;83.28
17615;BME280;8926;49.720;6.576;2023-05-09T04:24:42;99809.22;;;15.68;83.38
17615;BME280;8926;49.720;6.576;2023-05-09T04:27:07;99794.88;;;15.72;83.66
17615;BME280;8926;49.720;6.576;2023-05-09T04:29:33;99794.53;;;15.76;83.56
17615;BME280;8926;49.720;6.576;2023-05-09T04:31:59;99794.75;;;15.73;83.28
17615;BME280;8926;49.720;6.576;2023-05-09T04:34:24;99791.78;;;15.78;82.71
17615;BME280;8926;49.720;6.576;2023-05-09T04:36:51;99793.22;;;15.82;82.62
17615;BME280;8926;49.720;6.576;2023-05-09T04:39:17;99790.34;;;15.85;82.43
17615;BME280;8926;49.720;6.576;2023-05-09T04:41:42;99794.63;;;15.86;82.18
17615;BME280;8926;49.720;6.576;2023-05-09T04:44:09;99805.16;;;15.86;82.52
17615;BME280;8926;49.720;6.576;2023-05-09T04:46:34;99790.81;;;15.90;82.39
17615;BME280;8926;49.720;6.576;2023-05-09T04:49:00;99794.66;;;15.97;82.03
17615;BME280;8926;49.720;6.576;2023-05-09T04:51:25;99795.25;;;16.01;81.54
17615;BME280;8926;49.720;6.576;2023-05-09T04:53:51;99796.22;;;16.00;82.32
17615;BME280;8926;49.720;6.576;2023-05-09T04:56:16;99801.84;;;16.06;82.42
17615;BME280;8926;49.720;6.576;2023-05-09T04:58:41;99800.03;;;16.18;82.28
17615;BME280;8926;49.720;6.576;2023-05-09T05:01:06;99793.91;;;16.17;81.89
17615;BME280;8926;49.720;6.576;2023-05-09T05:03:32;99789.59;;;16.16;82.04
17615;BME280;8926;49.720;6.576;2023-05-09T05:05:57;99780.72;;;16.17;82.18
17615;BME280;8926;49.720;6.576;2023-05-09T05:08:22;99776.91;;;16.21;81.86
17615;BME280;8926;49.720;6.576;2023-05-09T05:10:48;99767.78;;;16.14;80.79
17615;BME280;8926;49.720;6.576;2023-05-09T05:13:14;99765.19;;;16.03;81.98
17615;BME280;8926;49.720;6.576;2023-05-09T05:15:39;99764.00;;;15.96;82.01
17615;BME280;8926;49.720;6.576;2023-05-09T05:18:05;99769.00;;;15.88;82.88
17615;BME280;8926;49.720;6.576;2023-05-09T05:20:30;99773.56;;;15.86;83.47
17615;BME280;8926;49.720;6.576;2023-05-09T05:22:55;99770.69;;;15.89;84.05
17615;BME280;8926;49.720;6.576;2023-05-09T05:25:22;99769.03;;;15.99;83.74
17615;BME280;8926;49.720;6.576;2023-05-09T05:27:48;99772.38;;;16.01;83.56
17615;BME280;8926;49.720;6.576;2023-05-09T05:30:13;99778.00;;;16.08;83.02
17615;BME280;8926;49.720;6.576;2023-05-09T05:32:41;99765.56;;;16.10;82.57
17615;BME280;8926;49.720;6.576;2023-05-09T05:35:08;99762.06;;;16.09;83.15
17615;BME280;8926;49.720;6.576;2023-05-09T05:37:35;99760.00;;;16.13;82.85
17615;BME280;8926;49.720;6.576;2023-05-09T05:40:01;99762.53;;;16.14;82.32
17615;BME280;8926;49.720;6.576;2023-05-09T05:42:26;99762.53;;;16.14;82.53
17615;BME280;8926;49.720;6.576;2023-05-09T05:44:52;99769.22;;;16.18;82.38
17615;BME280;8926;49.720;6.576;2023-05-09T05:47:17;99766.22;;;16.23;82.06
17615;BME280;8926;49.720;6.576;2023-05-09T05:49:42;99758.22;;;16.24;82.89
17615;BME280;8926;49.720;6.576;2023-05-09T05:52:07;99757.47;;;16.34;82.59
17615;BME280;8926;49.720;6.576;2023-05-09T05:54:33;99753.97;;;16.44;81.68
17615;BME280;8926;49.720;6.576;2023-05-09T05:56:58;99753.34;;;16.52;80.93
17615;BME280;8926;49.720;6.576;2023-05-09T05:59:23;99744.59;;;16.51;81.65
17615;BME280;8926;49.720;6.576;2023-05-09T06:01:48;99744.44;;;16.64;81.01
17615;BME280;8926;49.720;6.576;2023-05-09T06:04:14;99746.47;;;16.72;80.33
17615;BME280;8926;49.720;6.576;2023-05-09T06:06:39;99742.75;;;16.74;80.69
17615;BME280;8926;49.720;6.576;2023-05-09T06:09:05;99736.84;;;16.82;80.39
17615;BME280;8926;49.720;6.576;2023-05-09T06:11:30;99728.03;;;16.92;79.23
17615;BME280;8926;49.720;6.576;2023-05-09T06:13:55;99731.63;;;16.91;79.33
17615;BME280;8926;49.720;6.576;2023-05-09T06:16:21;99731.13;;;16.98;79.57
17615;BME280;8926;49.720;6.576;2023-05-09T06:18:47;99722.91;;;17.12;79.31
17615;BME280;8926;49.720;6.576;2023-05-09T06:21:12;99716.56;;;17.24;79.11
17615;BME280;8926;49.720;6.576;2023-05-09T06:23:37;99712.75;;;17.38;78.45
17615;BME280;8926;49.720;6.576;2023-05-09T06:26:03;99705.13;;;17.44;77.94
17615;BME280;8926;49.720;6.576;2023-05-09T06:28:29;99707.25;;;17.50;77.88
17615;BME280;8926;49.720;6.576;2023-05-09T06:30:54;99698.38;;;17.51;77.25
17615;BME280;8926;49.720;6.576;2023-05-09T06:33:19;99697.84;;;17.57;77.17
17615;BME280;8926;49.720;6.576;2023-05-09T06:35:45;99693.41;;;17.58;77.01
17615;BME280;8926;49.720;6.576;2023-05-09T06:38:10;99694.50;;;17.55;77.57
17615;BME280;8926;49.720;6.576;2023-05-09T06:40:35;99688.94;;;17.58;77.33
17615;BME280;8926;49.720;6.576;2023-05-09T06:43:01;99689.53;;;17.62;77.81
17615;BME280;8926;49.720;6.576;2023-05-09T06:45:26;99691.25;;;17.73;77.77
17615;BME280;8926;49.720;6.576;2023-05-09T06:47:51;99688.22;;;17.77;77.05
17615;BME280;8926;49.720;6.576;2023-05-09T06:50:17;99688.69;;;17.92;77.03
17615;BME280;8926;49.720;6.576;2023-05-09T06:52:42;99677.94;;;17.93;76.70
17615;BME280;8926;49.720;6.576;2023-05-09T06:55:08;99676.31;;;18.02;77.07
17615;BME280;8926;49.720;6.576;2023-05-09T06:57:34;99671.88;;;18.12;76.32
17615;BME280;8926;49.720;6.576;2023-05-09T06:59:59;99674.53;;;18.22;75.60
17615;BME280;8926;49.720;6.576;2023-05-09T07:02:24;99672.47;;;18.35;75.08
17615;BME280;8926;49.720;6.576;2023-05-09T07:04:49;99669.13;;;18.43;74.94
17615;BME280;8926;49.720;6.576;2023-05-09T07:07:15;99660.22;;;18.53;75.09
17615;BME280;8926;49.720;6.576;2023-05-09T07:09:40;99663.00;;;18.71;74.80
17615;BME280;8926;49.720;6.576;2023-05-09T07:12:06;99656.00;;;18.99;74.11
17615;BME280;8926;49.720;6.576;2023-05-09T07:14:31;99649.75;;;19.37;73.12
17615;BME280;8926;49.720;6.576;2023-05-09T07:16:56;99636.63;;;19.45;71.23
17615;BME280;8926;49.720;6.576;2023-05-09T07:19:22;99641.34;;;19.79;71.52
17615;BME280;8926;49.720;6.576;2023-05-09T07:21:47;99644.38;;;20.11;70.82
17615;BME280;8926;49.720;6.576;2023-05-09T07:24:12;99641.13;;;20.35;70.30
17615;BME280;8926;49.720;6.576;2023-05-09T07:26:37;99638.31;;;20.37;69.29
17615;BME280;8926;49.720;6.576;2023-05-09T07:29:03;99629.66;;;20.34;69.10
17615;BME280;8926;49.720;6.576;2023-05-09T07:31:28;99628.25;;;20.40;68.56
17615;BME280;8926;49.720;6.576;2023-05-09T07:33:54;99624.97;;;20.64;67.53
17615;BME280;8926;49.720;6.576;2023-05-09T07:36:19;99622.09;;;20.75;66.55
17615;BME280;8926;49.720;6.576;2023-05-09T07:38:45;99621.78;;;20.78;67.00
17615;BME280;8926;49.720;6.576;2023-05-09T07:41:12;99620.72;;;20.97;66.54
17615;BME280;8926;49.720;6.576;2023-05-09T07:43:37;99619.47;;;21.09;65.26
17615;BME280;8926;49.720;6.576;2023-05-09T07:46:02;99613.44;;;20.99;65.37
17615;BME280;8926;49.720;6.576;2023-05-09T07:48:28;99609.97;;;21.07;65.08
17615;BME280;8926;49.720;6.576;2023-05-09T07:50:53;99601.03;;;21.08;61.31
17615;BME280;8926;49.720;6.576;2023-05-09T07:53:18;99602.81;;;20.99;63.04
17615;BME280;8926;49.720;6.576;2023-05-09T07:55:44;99599.25;;;20.90;61.69
17615;BME280;8926;49.720;6.576;2023-05-09T07:58:11;99591.34;;;20.98;61.99
17615;BME280;8926;49.720;6.576;2023-05-09T08:00:36;99582.56;;;21.06;61.92
17615;BME280;8926;49.720;6.576;2023-05-09T08:03:02;99585.81;;;21.18;61.93
17615;BME280;8926;49.720;6.576;2023-05-09T08:05:27;99581.44;;;21.09;61.15
17615;BME280;8926;49.720;6.576;2023-05-09T08:07:52;99586.22;;;21.31;62.01
17615;BME280;8926;49.720;6.576;2023-05-09T08:10:18;99584.59;;;21.38;61.12
17615;BME280;8926;49.720;6.576;2023-05-09T08:12:45;99575.94;;;21.36;60.40
17615;BME280;8926;49.720;6.576;2023-05-09T08:15:11;99574.91;;;21.21;60.44
17615;BME280;8926;49.720;6.576;2023-05-09T08:17:36;99570.25;;;21.23;61.26
17615;BME280;8926;49.720;6.576;2023-05-09T08:20:01;99553.38;;;21.40;60.27
17615;BME280;8926;49.720;6.576;2023-05-09T08:22:29;99553.59;;;21.63;59.80
17615;BME280;8926;49.720;6.576;2023-05-09T08:24:54;99548.03;;;21.82;58.92
17615;BME280;8926;49.720;6.576;2023-05-09T08:27:20;99544.41;;;22.16;59.23
17615;BME280;8926;49.720;6.576;2023-05-09T08:29:45;99539.94;;;22.08;58.07
17615;BME280;8926;49.720;6.576;2023-05-09T08:32:10;99537.94;;;22.02;58.04
17615;BME280;8926;49.720;6.576;2023-05-09T08:34:35;99529.88;;;21.86;58.39
17615;BME280;8926;49.720;6.576;2023-05-09T08:37:01;99529.19;;;21.67;59.09
17615;BME280;8926;49.720;6.576;2023-05-09T08:39:27;99516.72;;;21.68;59.39
17615;BME280;8926;49.720;6.576;2023-05-09T08:41:59;99526.50;;;21.59;58.12
17615;BME280;8926;49.720;6.576;2023-05-09T08:44:25;99518.22;;;21.54;59.58
17615;BME280;8926;49.720;6.576;2023-05-09T08:46:54;99515.72;;;21.53;59.42
17615;BME280;8926;49.720;6.576;2023-05-09T08:49:21;99511.53;;;21.42;59.71
17615;BME280;8926;49.720;6.576;2023-05-09T08:51:47;99507.59;;;21.54;59.95
17615;BME280;8926;49.720;6.576;2023-05-09T08:54:13;99499.94;;;21.59;59.73
17615;BME280;8926;49.720;6.576;2023-05-09T08:56:38;99497.09;;;21.53;58.77
17615;BME280;8926;49.720;6.576;2023-05-09T08:59:04;99500.59;;;21.53;58.45
17615;BME280;8926;49.720;6.576;2023-05-09T09:01:32;99499.22;;;21.41;58.21
17615;BME280;8926;49.720;6.576;2023-05-09T09:03:57;99504.88;;;21.30;59.23
17615;BME280;8926;49.720;6.576;2023-05-09T09:06:23;99491.56;;;21.38;59.38
17615;BME280;8926;49.720;6.576;2023-05-09T09:08:50;99494.59;;;21.43;59.01
17615;BME280;8926;49.720;6.576;2023-05-09T09:11:16;99484.91;;;21.34;58.78
17615;BME280;8926;49.720;6.576;2023-05-09T09:13:42;99488.91;;;21.30;59.36
17615;BME280;8926;49.720;6.576;2023-05-09T09:16:15;99488.72;;;21.23;59.57
17615;BME280;8926;49.720;6.576;2023-05-09T09:18:43;99487.88;;;21.23;59.69
17615;BME280;8926;49.720;6.576;2023-05-09T09:21:11;99474.13;;;21.27;59.96
17615;BME280;8926;49.720;6.576;2023-05-09T09:23:38;99474.97;;;21.28;60.34
17615;BME280;8926;49.720;6.576;2023-05-09T09:26:05;99467.97;;;21.27;59.85
17615;BME280;8926;49.720;6.576;2023-05-09T09:28:30;99461.66;;;21.28;59.63
17615;BME280;8926;49.720;6.576;2023-05-09T09:30:57;99457.66;;;21.24;60.28
17615;BME280;8926;49.720;6.576;2023-05-09T09:33:25;99452.69;;;21.21;60.12
17615;BME280;8926;49.720;6.576;2023-05-09T09:35:52;99441.56;;;21.33;60.46
17615;BME280;8926;49.720;6.576;2023-05-09T09:38:19;99441.94;;;21.55;59.62
17615;BME280;8926;49.720;6.576;2023-05-09T09:43:16;99433.81;;;21.64;59.12
17615;BME280;8926;49.720;6.576;2023-05-09T09:45:41;99428.31;;;21.90;59.10
17615;BME280;8926;49.720;6.576;2023-05-09T09:48:06;99426.50;;;22.15;58.53
17615;BME280;8926;49.720;6.576;2023-05-09T09:50:32;99419.34;;;22.24;56.88
17615;BME280;8926;49.720;6.576;2023-05-09T09:52:57;99414.44;;;22.44;57.52
17615;BME280;8926;49.720;6.576;2023-05-09T09:55:24;99416.75;;;22.55;56.67
17615;BME280;8926;49.720;6.576;2023-05-09T09:57:50;99413.84;;;22.81;56.14
17615;BME280;8926;49.720;6.576;2023-05-09T10:00:18;99406.94;;;22.94;56.14
17615;BME280;8926;49.720;6.576;2023-05-09T10:02:51;99403.91;;;23.06;55.22
17615;BME280;8926;49.720;6.576;2023-05-09T10:05:22;99397.22;;;23.10;54.41
17615;BME280;8926;49.720;6.576;2023-05-09T10:07:50;99392.41;;;23.05;55.27
17615;BME280;8926;49.720;6.576;2023-05-09T10:10:17;99388.13;;;22.96;56.19
17615;BME280;8926;49.720;6.576;2023-05-09T10:12:42;99381.63;;;22.98;56.12
17615;BME280;8926;49.720;6.576;2023-05-09T10:15:09;99374.28;;;23.00;55.80
17615;BME280;8926;49.720;6.576;2023-05-09T10:17:35;99375.91;;;23.10;55.70
17615;BME280;8926;49.720;6.576;2023-05-09T10:20:03;99371.56;;;23.09;55.56
17615;BME280;8926;49.720;6.576;2023-05-09T10:22:31;99364.34;;;23.40;55.64
17615;BME280;8926;49.720;6.576;2023-05-09T10:25:21;99357.63;;;23.52;54.84
17615;BME280;8926;49.720;6.576;2023-05-09T10:27:50;99355.34;;;23.41;53.88
17615;BME280;8926;49.720;6.576;2023-05-09T10:30:27;99350.63;;;23.06;53.83
17615;BME280;8926;49.720;6.576;2023-05-09T10:33:03;99354.91;;;22.84;54.38
17615;BME280;8926;49.720;6.576;2023-05-09T10:35:35;99347.28;;;22.64;54.54
17615;BME280;8926;49.720;6.576;2023-05-09T10:38:01;99344.13;;;22.69;55.26
17615;BME280;8926;49.720;6.576;2023-05-09T10:40:27;99334.16;;;22.63;56.25
17615;BME280;8926;49.720;6.576;2023-05-09T10:42:53;99332.88;;;22.59;55.80
17615;BME280;8926;49.720;6.576;2023-05-09T10:45:19;99329.56;;;22.57;56.08
17615;BME280;8926;49.720;6.576;2023-05-09T10:47:47;99334.25;;;22.47;55.97
17615;BME280;8926;49.720;6.576;2023-05-09T10:50:14;99330.25;;;22.51;55.70
17615;BME280;8926;49.720;6.576;2023-05-09T10:55:57;99318.56;;;22.60;55.71
17615;BME280;8926;49.720;6.576;2023-05-09T10:58:29;99310.16;;;22.71;56.10
17615;BME280;8926;49.720;6.576;2023-05-09T11:00:58;99309.16;;;22.80;55.02
17615;BME280;8926;49.720;6.576;2023-05-09T11:03:25;99296.13;;;22.85;54.04
17615;BME280;8926;49.720;6.576;2023-05-09T11:05:53;99290.97;;;22.84;54.51
17615;BME280;8926;49.720;6.576;2023-05-09T11:10:50;99286.56;;;22.91;53.98
17615;BME280;8926;49.720;6.576;2023-05-09T11:13:23;99273.25;;;22.91;53.90
17615;BME280;8926;49.720;6.576;2023-05-09T11:18:24;99269.13;;;22.88;54.87
17615;BME280;8926;49.720;6.576;2023-05-09T11:20:50;99268.75;;;22.91;54.31
17615;BME280;8926;49.720;6.576;2023-05-09T11:23:20;99262.78;;;22.89;54.92
17615;BME280;8926;49.720;6.576;2023-05-09T11:25:47;99265.09;;;22.92;54.46
17615;BME280;8926;49.720;6.576;2023-05-09T11:28:29;99256.22;;;22.69;54.88
17615;BME280;8926;49.720;6.576;2023-05-09T11:31:12;99252.50;;;22.55;55.39
17615;BME280;8926;49.720;6.576;2023-05-09T11:33:38;99246.56;;;22.45;54.88
17615;BME280;8926;49.720;6.576;2023-05-09T11:36:28;99258.72;;;22.40;56.77
17615;BME280;8926;49.720;6.576;2023-05-09T11:39:07;99255.03;;;22.18;57.88
17615;BME280;8926;49.720;6.576;2023-05-09T11:41:42;99250.88;;;22.15;58.51
17615;BME280;8926;49.720;6.576;2023-05-09T11:44:18;99257.25;;;22.06;59.26
17615;BME280;8926;49.720;6.576;2023-05-09T11:46:45;99247.94;;;21.94;60.60
17615;BME280;8926;49.720;6.576;2023-05-09T11:49:11;99249.63;;;21.87;62.04
17615;BME280;8926;49.720;6.576;2023-05-09T11:51:37;99246.84;;;21.80;63.59
17615;BME280;8926;49.720;6.576;2023-05-09T11:54:03;99242.38;;;21.64;64.79
17615;BME280;8926;49.720;6.576;2023-05-09T11:56:29;99237.44;;;21.45;65.39
17615;BME280;8926;49.720;6.576;2023-05-09T11:58:55;99239.75;;;21.40;64.64
17615;BME280;8926;49.720;6.576;2023-05-09T12:01:22;99228.13;;;21.33;65.91
17615;BME280;8926;49.720;6.576;2023-05-09T12:03:48;99229.16;;;21.24;67.40
17615;BME280;8926;49.720;6.576;2023-05-09T12:06:18;99223.97;;;21.14;68.13
17615;BME280;8926;49.720;6.576;2023-05-09T12:08:44;99227.00;;;21.03;69.41
17615;BME280;8926;49.720;6.576;2023-05-09T12:11:10;99226.50;;;20.99;69.47
17615;BME280;8926;49.720;6.576;2023-05-09T12:13:48;99224.50;;;21.02;69.53
17615;BME280;8926;49.720;6.576;2023-05-09T12:16:15;99224.50;;;21.02;68.99
17615;BME280;8926;49.720;6.576;2023-05-09T12:18:59;99211.22;;;21.02;69.42
17615;BME280;8926;49.720;6.576;2023-05-09T12:21:24;99202.09;;;21.04;70.15
17615;BME280;8926;49.720;6.576;2023-05-09T12:23:54;99213.06;;;21.01;71.53
17615;BME280;8926;49.720;6.576;2023-05-09T12:26:20;99201.59;;;21.00;70.38
17615;BME280;8926;49.720;6.576;2023-05-09T12:28:47;99194.63;;;20.99;70.57
17615;BME280;8926;49.720;6.576;2023-05-09T12:31:13;99200.75;;;21.00;71.60
17615;BME280;8926;49.720;6.576;2023-05-09T12:33:38;99195.94;;;21.04;71.60
17615;BME280;8926;49.720;6.576;2023-05-09T12:36:05;99194.28;;;21.03;71.91
17615;BME280;8926;49.720;6.576;2023-05-09T12:38:31;99193.63;;;21.00;69.87
17615;BME280;8926;49.720;6.576;2023-05-09T12:41:05;99190.44;;;20.81;73.17
17615;BME280;8926;49.720;6.576;2023-05-09T12:43:36;99194.94;;;20.80;72.36
17615;BME280;8926;49.720;6.576;2023-05-09T12:46:02;99185.00;;;20.74;73.17
17615;BME280;8926;49.720;6.576;2023-05-09T12:48:29;99188.66;;;20.73;73.01
17615;BME280;8926;49.720;6.576;2023-05-09T12:50:55;99193.97;;;20.73;73.01
17615;BME280;8926;49.720;6.576;2023-05-09T12:53:27;99184.50;;;20.71;72.95
17615;BME280;8926;49.720;6.576;2023-05-09T12:56:04;99183.00;;;20.68;73.61
17615;BME280;8926;49.720;6.576;2023-05-09T12:58:35;99178.69;;;20.67;73.29
17615;BME280;8926;49.720;6.576;2023-05-09T13:01:02;99190.78;;;20.61;73.29
17615;BME280;8926;49.720;6.576;2023-05-09T13:03:29;99180.66;;;20.57;74.11
17615;BME280;8926;49.720;6.576;2023-05-09T13:06:03;99188.31;;;20.52;73.02
17615;BME280;8926;49.720;6.576;2023-05-09T13:08:30;99185.28;;;20.39;73.17
17615;BME280;8926;49.720;6.576;2023-05-09T13:10:58;99191.88;;;20.26;75.00
17615;BME280;8926;49.720;6.576;2023-05-09T13:13:27;99181.25;;;20.26;74.94
17615;BME280;8926;49.720;6.576;2023-05-09T13:15:53;99188.56;;;20.24;75.62
17615;BME280;8926;49.720;6.576;2023-05-09T13:18:18;99186.22;;;20.29;75.26
17615;BME280;8926;49.720;6.576;2023-05-09T13:20:44;99181.75;;;20.30;75.27
17615;BME280;8926;49.720;6.576;2023-05-09T13:23:09;99179.25;;;20.28;74.77
17615;BME280;8926;49.720;6.576;2023-05-09T13:25:35;99177.94;;;20.24;72.80
17615;BME280;8926;49.720;6.576;2023-05-09T13:28:00;99178.06;;;20.15;73.41
17615;BME280;8926;49.720;6.576;2023-05-09T13:30:26;99179.69;;;20.08;74.80